East Waterboro, ME

7:43 AM EDT on August 20, 2014 (GMT -0400)
Buxton Maine | Change Station
CLOSE
Current Station
Personal Weather Station
Location: Buxton, ME
Elevation: 207 ft
Nearby Weather Stations

Elev 207 ft 43.62 °N, 70.50 °W | Updated 14 seconds ago

Clear
Clear
56.8 °F
Feels Like 56.8 °F
N
0.0
Wind Variable Wind from East
Gusts 0.0 mph

Today
High -- | Low -- °F
--% Chance of Precip.
Yesterday
High -- | Low -- °F
Precip. -- in
5:53 AM 7:38 PM
Waning Crescent, 22% visible
Pressure 30.02 in
Visibility 10.0 miles
Clouds Clear
Dew Point 57 °F
Humidity 99%
Rainfall 0.00 in
Snow Depth Not available.
UV 1 out of 12
Pollen 8.50 out of 12
Air Quality Not available.
Flu Activity Not available.
METAR KSFM 201135Z AUTO 00000KT 10SM CLR 14/11 A3002 RMK AO1

More Conditions Fewer Conditions

Pressure 30.02 in
Visibility 10.0 miles
Clouds Clear
Dew Point 57 °F
Humidity 99%
Rainfall 0.00 in
Snow Depth Not available.
UV 1 out of 12
Pollen 8.50 out of 12
Air Quality Not available.
Flu Activity Not available.
METAR KSFM 201135Z AUTO 00000KT 10SM CLR 14/11 A3002 RMK AO1

More Conditions Fewer Conditions

10-Day Weather Forecast

Almanac

Astronomy

Aug. 20, 2014 Rise Set
Actual Time 5:53 AM EDT 7:38 PM EDT
Civil Twilight 5:22 AM EDT 8:08 PM EDT
Nautical Twilight 4:45 AM EDT 8:45 PM EDT
Astronomical Twilight 4:05 AM EDT 9:25 PM EDT
Moon 1:27 AM EDT 4:24 PM EDT
Length of Visible Light 14h 46m
Length of Day
13h 45m
Tomorrow will be 2m 44s shorter.
Waning Crescent, 22% of the Moon is Illuminated
Today
Waning Crescent
Aug 25
New
Sep 2
First Quarter
Sep 8
Full
Sep 15
Last Quarter

Today's Extremes

State Highs State Lows

Community

WunderPhotos

Upload Photos

1,745,611 photos uploaded!

Nearby

Air Quality

  Air Quality AQ Index Pollutant
Yesterday Good
OZONE
Wednesday Good
OZONE
Wednesday Good
PM2.5
Thursday Good
OZONE
Thursday Good
PM2.5
Friday Good
OZONE
Friday Good
PM2.5
Saturday Good
OZONE
Saturday Good
PM2.5

Snow Depth

Station Depth Elevation
No new snow has been reported.

Earthquake Activity

City Distance Mag. Time & Date
No recent earthquake activity has been reported nearby.
Minimum magnitude displayed is 2.5.

Coastal Water Temperatures

Place Temperature
Wells, ME 61.0 °F
Portland, ME 60.1 °F

Nearby Weather Stations